Time;durP1;ratioP1;P1;durP2;ratioP2;P2;SDS_P1;SDS_P2;PMS_P1;PMS_P2;Temp;Humidity;BMP_temperature;BMP_pressure;BME280_temperature;BME280_humidity;BME280_pressure;Samples;Min_cycle;Max_cycle;Signal;HPM_P1;HPM_P2
2023/11/12 00:02:17;;;;;;;26.20;8.93;;;;;;;10.46;96.13;99933.22;4933994;29;20055;-61
2023/11/12 00:04:44;;;;;;;23.33;8.82;;;;;;;10.95;95.52;99928.88;4932992;29;20079;-61
2023/11/12 00:07:11;;;;;;;23.17;8.63;;;;;;;10.58;93.38;99925.09;4933393;29;20071;-60
2023/11/12 00:09:39;;;;;;;35.33;9.20;;;;;;;10.59;93.61;99934.13;4932097;29;20048;-61
2023/11/12 00:12:08;;;;;;;24.95;9.07;;;;;;;10.43;93.53;99935.81;4932184;29;20043;-61
2023/11/12 00:14:35;;;;;;;25.40;8.93;;;;;;;10.37;95.87;99942.66;4960716;28;20066;-61
2023/11/12 00:17:03;;;;;;;22.45;8.07;;;;;;;10.74;97.02;99934.38;4947189;29;20055;-62
2023/11/12 00:19:30;;;;;;;23.85;8.60;;;;;;;10.68;94.44;99937.66;4947938;29;20048;-62
2023/11/12 00:21:58;;;;;;;21.85;8.10;;;;;;;10.67;95.63;99928.56;4948853;28;20063;-62
2023/11/12 00:24:27;;;;;;;22.17;9.15;;;;;;;10.55;95.90;99924.94;4932693;29;20047;-63
2023/11/12 00:26:55;;;;;;;22.65;8.23;;;;;;;9.88;95.87;99919.34;4963811;28;20051;-62
2023/11/12 00:29:22;;;;;;;21.75;9.02;;;;;;;10.00;97.83;99912.03;4932835;29;20479;-61
2023/11/12 00:31:49;;;;;;;24.23;7.97;;;;;;;10.68;98.15;99902.66;4931043;29;20089;-62
2023/11/12 00:34:16;;;;;;;29.90;8.68;;;;;;;10.51;95.05;99893.69;4964439;28;20054;-63
2023/11/12 00:36:44;;;;;;;28.33;8.40;;;;;;;10.38;93.95;99864.44;4964375;28;20068;-61
2023/11/12 00:39:12;;;;;;;25.50;8.77;;;;;;;10.26;94.31;99845.09;4934447;29;20419;-61
2023/11/12 00:41:39;;;;;;;25.75;8.88;;;;;;;10.33;96.30;99851.69;4948739;29;20048;-62
2023/11/12 00:44:08;;;;;;;31.95;8.73;;;;;;;9.84;96.90;99857.88;4933519;29;20056;-62
2023/11/12 00:46:38;;;;;;;20.70;8.02;;;;;;;10.01;98.38;99866.88;4933625;29;20352;-61
2023/11/12 00:49:05;;;;;;;20.15;8.25;;;;;;;10.19;98.13;99870.38;4932417;29;20048;-62
2023/11/12 00:51:33;;;;;;;26.60;8.23;;;;;;;9.99;97.52;99865.56;4932934;29;20523;-62
2023/11/12 00:54:00;;;;;;;21.30;7.82;;;;;;;9.60;98.19;99846.63;4954478;28;20188;-62
2023/11/12 00:56:28;;;;;;;24.35;7.38;;;;;;;9.66;99.75;99842.59;4933114;29;20411;-61
2023/11/12 00:58:55;;;;;;;16.85;6.97;;;;;;;9.95;99.55;99846.19;4933461;29;20051;-62
2023/11/12 01:01:22;;;;;;;22.80;7.20;;;;;;;10.08;97.67;99836.09;4933324;29;20050;-63
2023/11/12 01:03:49;;;;;;;23.52;7.47;;;;;;;10.10;97.92;99845.66;4934168;29;20059;-62
2023/11/12 01:06:17;;;;;;;21.08;7.15;;;;;;;10.38;97.83;99837.72;4933774;29;20050;-62
2023/11/12 01:08:45;;;;;;;21.83;7.57;;;;;;;10.63;95.74;99833.19;4948140;29;20067;-63
2023/11/12 01:11:13;;;;;;;20.40;7.32;;;;;;;10.79;94.97;99820.44;4963772;28;20051;-62
2023/11/12 01:13:40;;;;;;;19.02;7.32;;;;;;;10.43;93.87;99815.50;4964400;28;20059;-61
2023/11/12 01:16:08;;;;;;;22.30;7.35;;;;;;;10.36;95.63;99826.25;4933455;29;20449;-60
2023/11/12 01:18:40;;;;;;;17.00;6.72;;;;;;;10.50;95.55;99824.03;4947829;29;20067;-61
2023/11/12 01:21:08;;;;;;;20.15;6.68;;;;;;;10.33;95.77;99818.66;4933405;29;20059;-62
2023/11/12 01:23:36;;;;;;;18.60;6.63;;;;;;;10.12;95.38;99815.06;4916988;29;20463;-62
2023/11/12 01:26:04;;;;;;;20.60;6.50;;;;;;;10.01;95.79;99816.53;4964257;28;20070;-62
2023/11/12 01:28:34;;;;;;;19.13;6.15;;;;;;;11.22;95.39;99829.13;4931548;29;20043;-61
2023/11/12 01:31:02;;;;;;;19.33;6.65;;;;;;;11.19;89.83;99829.81;4932047;29;20078;-61
2023/11/12 01:33:29;;;;;;;22.83;6.75;;;;;;;11.63;89.25;99837.28;4932166;29;20408;-61
2023/11/12 01:36:02;;;;;;;17.00;5.63;;;;;;;11.51;89.61;99840.00;4933268;29;20055;-62
2023/11/12 01:38:31;;;;;;;17.00;5.63;;;;;;;11.28;88.95;99842.34;4947150;29;20059;-62
2023/11/12 01:41:02;;;;;;;19.58;6.22;;;;;;;11.31;89.94;99847.19;4932822;29;20654;-62
2023/11/12 01:43:30;;;;;;;17.70;5.82;;;;;;;11.61;89.99;99847.84;4931985;29;20048;-61
2023/11/12 01:46:00;;;;;;;19.33;5.70;;;;;;;11.20;89.46;99846.00;4962882;28;20043;-62
2023/11/12 01:48:30;;;;;;;19.80;6.28;;;;;;;11.24;91.53;99843.38;4932301;29;20484;-61
2023/11/12 01:51:03;;;;;;;16.13;5.70;;;;;;;11.48;90.43;99845.41;4947204;28;20065;-62
2023/11/12 01:53:32;;;;;;;16.63;5.85;;;;;;;11.32;90.35;99854.31;4962696;28;20078;-61
2023/11/12 01:56:00;;;;;;;16.73;6.27;;;;;;;11.26;90.02;99857.63;4915141;29;20055;-61
2023/11/12 01:58:28;;;;;;;16.27;5.53;;;;;;;11.27;91.51;99851.78;4930846;29;20047;-63
2023/11/12 02:00:55;;;;;;;18.60;5.57;;;;;;;10.60;91.97;99842.13;4963102;28;20052;-60
2023/11/12 02:03:23;;;;;;;19.23;5.95;;;;;;;10.68;95.00;99842.06;4946939;29;20044;-62
2023/11/12 02:05:51;;;;;;;21.60;6.10;;;;;;;11.07;93.65;99841.56;4951109;28;20063;-61
2023/11/12 02:08:20;;;;;;;22.00;5.55;;;;;;;10.81;92.29;99843.75;4947047;29;20518;-61
2023/11/12 02:10:50;;;;;;;17.52;5.45;;;;;;;11.13;93.94;99850.44;4929043;29;20067;-61
2023/11/12 02:13:18;;;;;;;20.00;5.38;;;;;;;10.78;91.71;99838.91;4931090;29;20476;-61
2023/11/12 02:15:50;;;;;;;18.48;5.60;;;;;;;10.78;94.40;99849.09;4945423;29;20064;-60
2023/11/12 02:18:17;;;;;;;18.35;4.82;;;;;;;10.84;95.39;99839.53;4930756;29;20481;-61
2023/11/12 02:20:46;;;;;;;15.30;4.30;;;;;;;10.63;94.34;99830.44;4934512;29;20059;-61
2023/11/12 02:23:17;;;;;;;14.80;4.78;;;;;;;10.58;94.62;99828.72;4952938;28;20078;-60
2023/11/12 02:25:45;;;;;;;13.52;4.47;;;;;;;10.18;94.84;99830.25;4934590;29;20071;-60
2023/11/12 02:28:18;;;;;;;13.95;4.63;;;;;;;10.56;97.10;99828.22;4950187;29;20048;-61
2023/11/12 02:30:46;;;;;;;17.52;4.65;;;;;;;10.80;94.97;99828.38;4951120;28;20533;-62
2023/11/12 02:33:13;;;;;;;17.35;4.15;;;;;;;10.57;95.02;99829.81;4933373;29;20055;-61
2023/11/12 02:35:45;;;;;;;15.85;4.13;;;;;;;10.70;94.17;99823.28;4918000;29;20059;-61
2023/11/12 02:38:12;;;;;;;13.05;4.07;;;;;;;10.78;95.13;99818.81;4950626;28;20431;-62
2023/11/12 02:40:40;;;;;;;15.57;4.43;;;;;;;10.33;93.88;99820.59;4950108;28;20460;-61
2023/11/12 02:43:09;;;;;;;11.90;3.83;;;;;;;10.65;97.15;99822.66;4934892;29;20126;-61
2023/11/12 02:45:36;;;;;;;16.92;4.03;;;;;;;10.44;96.39;99824.59;4966014;28;20073;-61
2023/11/12 02:48:04;;;;;;;13.85;3.72;;;;;;;9.88;97.45;99818.41;4949763;29;20527;-60
2023/11/12 02:50:32;;;;;;;13.43;3.63;;;;;;;10.11;97.93;99822.50;4939758;29;20054;-60
2023/11/12 02:53:01;;;;;;;15.60;3.70;;;;;;;10.06;98.04;99828.16;4935697;29;20079;-60
2023/11/12 02:55:29;;;;;;;14.68;3.90;;;;;;;10.63;97.84;99831.25;4934554;29;20051;-61
2023/11/12 02:57:56;;;;;;;14.77;4.13;;;;;;;10.61;95.04;99827.22;4934703;29;20063;-60
2023/11/12 03:00:27;;;;;;;18.27;4.75;;;;;;;10.70;96.42;99820.50;4935219;29;20419;-61
2023/11/12 03:02:57;;;;;;;10.60;3.17;;;;;;;10.60;95.18;99820.09;4935063;29;20055;-60
2023/11/12 03:05:26;;;;;;;12.45;3.38;;;;;;;10.22;94.26;99817.41;4934719;29;20059;-61
2023/11/12 03:07:54;;;;;;;14.23;3.40;;;;;;;9.97;95.59;99821.88;4933917;29;20055;-62
2023/11/12 03:10:21;;;;;;;11.10;3.05;;;;;;;10.26;95.96;99807.38;4965298;28;20044;-61
2023/11/12 03:12:49;;;;;;;11.63;3.55;;;;;;;10.01;95.47;99816.53;4934623;29;20059;-61
2023/11/12 03:15:16;;;;;;;12.00;3.63;;;;;;;10.57;96.26;99801.47;4935002;29;20439;-60
2023/11/12 03:17:44;;;;;;;10.25;3.70;;;;;;;10.62;94.72;99804.84;4933406;29;20064;-60
2023/11/12 03:20:13;;;;;;;13.65;3.30;;;;;;;10.64;94.54;99810.00;4964605;28;20052;-62
2023/11/12 03:22:41;;;;;;;12.88;3.72;;;;;;;10.63;95.10;99806.47;4934429;29;20055;-61
2023/11/12 03:25:09;;;;;;;13.48;3.40;;;;;;;10.27;93.53;99810.94;4967163;28;20056;-62
2023/11/12 03:27:38;;;;;;;13.73;3.33;;;;;;;10.51;95.58;99809.16;4963943;28;20060;-61
2023/11/12 03:30:08;;;;;;;11.55;3.30;;;;;;;10.47;94.80;99808.22;4948508;29;20062;-61
2023/11/12 03:32:35;;;;;;;12.25;3.65;;;;;;;10.71;93.43;99813.03;4934567;29;20055;-61
2023/11/12 03:35:03;;;;;;;12.32;2.60;;;;;;;10.86;93.26;99812.44;4949472;29;20060;-61
2023/11/12 03:37:30;;;;;;;12.95;2.90;;;;;;;10.81;92.78;99816.19;4934457;29;20446;-61
2023/11/12 03:39:57;;;;;;;8.18;2.80;;;;;;;10.66;92.39;99814.06;4933925;29;20083;-61
2023/11/12 03:42:24;;;;;;;9.05;2.63;;;;;;;10.46;93.43;99819.56;4934181;29;20051;-60
2023/11/12 03:44:51;;;;;;;9.68;2.95;;;;;;;10.13;95.63;99819.41;4927193;29;20130;-61
2023/11/12 03:47:19;;;;;;;12.50;3.20;;;;;;;9.60;95.90;99830.13;4934322;29;20077;-60
2023/11/12 03:49:46;;;;;;;9.63;2.85;;;;;;;10.38;97.21;99812.13;4934271;29;20059;-60
2023/11/12 03:52:14;;;;;;;9.57;2.83;;;;;;;10.27;96.41;99808.97;4965081;28;20074;-61
2023/11/12 03:54:42;;;;;;;10.55;2.55;;;;;;;10.13;96.35;99824.91;4933595;29;20035;-61
2023/11/12 03:57:09;;;;;;;11.35;2.70;;;;;;;10.27;95.98;99811.72;4933385;29;20047;-61
2023/11/12 03:59:36;;;;;;;11.55;2.85;;;;;;;9.88;96.44;99823.09;4934087;29;20071;-61
2023/11/12 04:02:04;;;;;;;7.65;2.70;;;;;;;10.17;98.34;99812.13;4933912;29;20782;-62
2023/11/12 04:04:32;;;;;;;9.45;2.60;;;;;;;10.39;96.43;99811.81;4933914;29;20051;-60
2023/11/12 04:07:00;;;;;;;8.05;2.83;;;;;;;9.56;96.53;99808.00;4934402;29;20535;-61
2023/11/12 04:09:27;;;;;;;9.95;2.67;;;;;;;10.17;98.84;99809.38;4933537;29;20055;-60
2023/11/12 04:11:55;;;;;;;12.55;2.50;;;;;;;10.01;94.81;99814.59;4934095;29;20707;-61
2023/11/12 04:14:23;;;;;;;10.43;2.40;;;;;;;10.36;97.46;99803.41;4948329;29;20039;-61
2023/11/12 04:16:50;;;;;;;8.10;2.33;;;;;;;9.82;96.31;99814.22;4963465;28;20063;-61
2023/11/12 04:19:17;;;;;;;7.57;2.25;;;;;;;9.60;97.26;99808.16;4932308;29;20048;-60
2023/11/12 04:21:46;;;;;;;8.85;2.47;;;;;;;9.86;98.69;99806.09;4933281;29;20723;-62
2023/11/12 04:24:13;;;;;;;4.80;2.00;;;;;;;9.64;96.42;99798.91;4963165;28;20558;-60
2023/11/12 04:26:40;;;;;;;10.43;2.20;;;;;;;10.06;98.43;99788.81;4931558;29;20060;-61
2023/11/12 04:29:08;;;;;;;9.27;2.28;;;;;;;9.45;96.12;99800.44;4932247;29;20062;-61
2023/11/12 04:31:36;;;;;;;9.88;2.33;;;;;;;9.56;96.45;99801.69;4932561;29;20086;-62
2023/11/12 04:34:04;;;;;;;11.18;2.80;;;;;;;9.42;98.66;99799.16;4932036;29;20051;-60
2023/11/12 04:36:35;;;;;;;10.93;2.47;;;;;;;9.44;97.78;99799.63;4963277;28;20098;-62
2023/11/12 04:39:03;;;;;;;9.50;2.50;;;;;;;9.25;98.45;99798.38;4932477;29;20711;-62
2023/11/12 04:41:30;;;;;;;6.50;2.55;;;;;;;9.34;99.61;99790.94;4932354;29;20055;-61
2023/11/12 04:43:59;;;;;;;9.75;2.25;;;;;;;9.13;99.37;99788.88;4930020;29;20066;-62
2023/11/12 04:46:27;;;;;;;8.90;1.98;;;;;;;9.45;100.00;99792.19;4946303;29;20047;-61
2023/11/12 04:48:54;;;;;;;6.15;1.73;;;;;;;9.80;100.00;99786.22;4932190;29;20133;-62
2023/11/12 04:51:22;;;;;;;7.15;1.70;;;;;;;9.59;97.57;99782.59;4932591;29;20055;-61
2023/11/12 04:53:50;;;;;;;8.38;1.98;;;;;;;9.79;98.51;99772.81;4932066;29;20048;-61
2023/11/12 04:56:17;;;;;;;6.75;1.95;;;;;;;9.62;96.41;99781.13;4932549;29;20059;-61
2023/11/12 04:58:44;;;;;;;7.65;1.88;;;;;;;9.61;95.03;99777.56;4929782;29;20074;-61
2023/11/12 05:01:11;;;;;;;6.45;1.88;;;;;;;9.80;95.82;99763.41;4932124;29;20048;-61
2023/11/12 05:03:39;;;;;;;4.70;1.65;;;;;;;9.74;94.41;99767.50;4931120;29;20071;-60
2023/11/12 05:06:07;;;;;;;6.53;1.63;;;;;;;9.73;93.32;99754.88;4932337;29;20710;-61
2023/11/12 05:08:34;;;;;;;4.82;1.42;;;;;;;9.37;93.04;99757.28;4931006;29;20062;-61
2023/11/12 05:11:02;;;;;;;6.47;1.60;;;;;;;9.27;93.72;99758.47;4932152;29;20051;-61
2023/11/12 05:13:30;;;;;;;7.28;2.00;;;;;;;9.30;94.68;99752.31;4931254;29;20071;-62
2023/11/12 05:15:57;;;;;;;7.72;1.30;;;;;;;9.47;94.71;99746.75;4925379;28;1097543;-60
2023/11/12 05:18:24;;;;;;;7.63;1.58;;;;;;;9.67;94.63;99739.72;4929640;29;20737;-62
2023/11/12 05:20:52;;;;;;;6.97;2.15;;;;;;;9.34;94.29;99728.53;4932982;29;20084;-61
2023/11/12 05:23:19;;;;;;;7.80;1.67;;;;;;;9.10;95.57;99718.09;4963320;28;20079;-60
2023/11/12 05:25:47;;;;;;;9.18;1.70;;;;;;;8.97;96.37;99723.78;4946124;29;20047;-60
2023/11/12 05:28:15;;;;;;;9.00;1.70;;;;;;;8.87;97.54;99730.44;4931926;29;20527;-60
2023/11/12 05:30:43;;;;;;;5.13;1.80;;;;;;;9.04;97.96;99724.09;4949919;28;20070;-61
2023/11/12 05:33:10;;;;;;;6.50;2.15;;;;;;;8.95;97.17;99731.56;4933333;29;20054;-60
2023/11/12 05:35:37;;;;;;;7.43;2.20;;;;;;;9.14;97.05;99731.97;4931877;29;20531;-61
2023/11/12 05:38:05;;;;;;;6.25;1.83;;;;;;;9.04;97.18;99721.34;4963499;28;20060;-62
2023/11/12 05:40:32;;;;;;;10.90;2.63;;;;;;;9.18;97.23;99734.88;4962402;28;20056;-62
2023/11/12 05:43:00;;;;;;;10.23;1.83;;;;;;;9.14;97.58;99740.22;4932699;29;20804;-60
2023/11/12 05:45:27;;;;;;;6.57;2.20;;;;;;;9.07;97.91;99726.19;4929912;29;20056;-61
2023/11/12 05:47:55;;;;;;;8.93;2.53;;;;;;;9.05;97.89;99729.25;4932758;29;20059;-61
2023/11/12 05:50:23;;;;;;;8.82;2.50;;;;;;;9.06;97.29;99733.66;4935437;29;20406;-60
2023/11/12 05:52:50;;;;;;;7.00;2.13;;;;;;;9.15;97.76;99739.13;4924516;29;20051;-60
2023/11/12 05:55:18;;;;;;;7.40;1.77;;;;;;;9.05;97.28;99736.69;4932425;29;20718;-60
2023/11/12 05:57:46;;;;;;;9.20;1.80;;;;;;;9.07;97.35;99732.50;4927967;29;20278;-60
2023/11/12 06:00:13;;;;;;;8.00;2.00;;;;;;;9.13;98.44;99736.66;4931442;29;20048;-61
2023/11/12 06:02:41;;;;;;;9.45;1.98;;;;;;;8.99;98.75;99732.53;4931179;29;20067;-63
2023/11/12 06:05:09;;;;;;;7.50;1.88;;;;;;;9.23;98.74;99738.25;4931617;29;20043;-60
2023/11/12 06:07:36;;;;;;;8.40;2.05;;;;;;;9.37;98.69;99733.38;4932571;29;20059;-62
2023/11/12 06:10:04;;;;;;;6.55;2.03;;;;;;;9.85;97.77;99733.78;4947371;29;20063;-61
2023/11/12 06:12:31;;;;;;;6.78;1.77;;;;;;;9.58;95.32;99728.75;4963037;28;20070;-61
2023/11/12 06:14:58;;;;;;;6.43;1.75;;;;;;;9.35;93.86;99734.81;4932475;29;20055;-64
2023/11/12 06:17:26;;;;;;;9.52;1.92;;;;;;;9.44;94.28;99727.34;4962618;28;20066;-62
2023/11/12 06:19:53;;;;;;;7.30;1.77;;;;;;;9.47;94.20;99727.50;4932616;28;20059;-61
2023/11/12 06:22:20;;;;;;;4.80;1.38;;;;;;;9.30;94.27;99729.50;4931130;29;20578;-61
2023/11/12 06:24:47;;;;;;;8.30;2.15;;;;;;;9.45;94.95;99731.72;4934518;29;20056;-62
2023/11/12 06:27:15;;;;;;;6.35;1.60;;;;;;;9.35;96.15;99730.13;4932357;29;20700;-62
2023/11/12 06:29:43;;;;;;;7.43;2.20;;;;;;;9.42;97.51;99727.69;4932453;29;20079;-61
2023/11/12 06:32:10;;;;;;;9.45;1.83;;;;;;;9.37;96.25;99724.31;4933056;29;20063;-62
2023/11/12 06:34:37;;;;;;;8.38;1.83;;;;;;;9.50;96.63;99740.56;4963785;28;20048;-62
2023/11/12 06:37:05;;;;;;;7.03;1.52;;;;;;;9.11;96.35;99732.66;4930629;29;20059;-61
2023/11/12 06:39:33;;;;;;;6.53;1.60;;;;;;;9.23;96.95;99731.97;4963173;28;20091;-61
2023/11/12 06:42:00;;;;;;;6.10;1.80;;;;;;;9.57;97.60;99727.13;4962664;28;20075;-61
2023/11/12 06:44:28;;;;;;;6.60;1.70;;;;;;;9.38;95.49;99732.22;4930724;29;20059;-61
2023/11/12 06:46:57;;;;;;;6.40;1.50;;;;;;;9.36;97.14;99736.44;4931800;29;20044;-61
2023/11/12 06:49:24;;;;;;;7.78;1.90;;;;;;;9.02;96.96;99738.16;4932583;29;20584;-61
2023/11/12 06:51:51;;;;;;;8.07;2.15;;;;;;;9.19;98.79;99731.03;4932410;29;20063;-61
2023/11/12 06:54:19;;;;;;;6.07;1.40;;;;;;;8.98;98.96;99737.19;4931962;29;20082;-62
2023/11/12 06:56:46;;;;;;;7.57;1.40;;;;;;;9.10;99.90;99737.31;4931019;29;20052;-61
2023/11/12 06:59:13;;;;;;;6.93;1.58;;;;;;;9.08;99.70;99738.81;4932963;29;20052;-63
2023/11/12 07:01:41;;;;;;;5.63;1.50;;;;;;;9.34;100.00;99742.28;4932088;29;20069;-62
2023/11/12 07:04:10;;;;;;;5.20;1.52;;;;;;;9.22;98.93;99733.91;4962582;28;20058;-61
2023/11/12 07:06:37;;;;;;;9.07;1.90;;;;;;;9.45;99.16;99743.50;4930961;29;20055;-61
2023/11/12 07:09:05;;;;;;;6.22;1.60;;;;;;;9.23;98.99;99748.44;4934308;29;20058;-61
2023/11/12 07:11:32;;;;;;;6.70;1.50;;;;;;;8.80;100.00;99752.06;4934399;29;20102;-62
2023/11/12 07:14:00;;;;;;;6.53;1.63;;;;;;;9.14;100.00;99748.47;4934494;29;20043;-62
2023/11/12 07:16:27;;;;;;;9.20;1.55;;;;;;;9.01;100.00;99750.28;4948925;29;20060;-60
2023/11/12 07:18:55;;;;;;;5.20;1.63;;;;;;;8.94;100.00;99757.41;4934585;29;20059;-60
2023/11/12 07:21:30;;;;;;;4.00;1.67;;;;;;;9.05;100.00;99747.69;4932547;29;20448;-62
2023/11/12 07:24:00;;;;;;;4.88;1.60;;;;;;;9.00;100.00;99754.16;4927580;29;20064;-61
2023/11/12 07:26:28;;;;;;;3.22;1.50;;;;;;;9.01;100.00;99744.00;4935241;29;20051;-61
2023/11/12 07:28:55;;;;;;;8.20;1.90;;;;;;;9.25;100.00;99754.41;4963878;28;20077;-61
2023/11/12 07:31:23;;;;;;;5.78;1.80;;;;;;;9.09;100.00;99763.19;4951122;28;20515;-61
2023/11/12 07:33:52;;;;;;;8.48;1.77;;;;;;;9.18;100.00;99768.66;4933959;29;20122;-61
2023/11/12 07:36:21;;;;;;;7.00;1.70;;;;;;;9.03;100.00;99769.97;4941634;29;20059;-61
2023/11/12 07:38:48;;;;;;;6.57;1.73;;;;;;;9.15;100.00;99774.00;4933757;29;20058;-61
2023/11/12 07:41:16;;;;;;;5.82;1.85;;;;;;;9.35;100.00;99767.78;4935199;29;20069;-61
2023/11/12 07:43:43;;;;;;;7.93;1.90;;;;;;;9.28;100.00;99771.06;4932821;29;20052;-61
2023/11/12 07:46:12;;;;;;;4.30;1.67;;;;;;;9.24;100.00;99772.06;4934665;29;20052;-62
2023/11/12 07:48:39;;;;;;;5.38;1.67;;;;;;;9.12;100.00;99782.91;4936411;29;20114;-61
2023/11/12 07:51:07;;;;;;;6.20;1.75;;;;;;;9.34;100.00;99778.00;4946698;29;20060;-62
2023/11/12 07:53:36;;;;;;;4.68;1.70;;;;;;;9.33;100.00;99781.09;4934459;29;20058;-61
2023/11/12 07:56:06;;;;;;;4.72;1.50;;;;;;;9.04;100.00;99779.84;4932398;29;20052;-62
2023/11/12 07:58:35;;;;;;;4.63;1.70;;;;;;;9.03;100.00;99783.72;4948713;29;20658;-60
2023/11/12 08:01:03;;;;;;;3.75;1.30;;;;;;;8.98;100.00;99788.56;4934465;29;20051;-62
2023/11/12 08:03:32;;;;;;;5.97;1.55;;;;;;;9.16;100.00;99786.59;4940605;28;20551;-62
2023/11/12 08:05:59;;;;;;;7.07;1.77;;;;;;;9.50;100.00;99792.03;4933487;29;20040;-62
2023/11/12 08:08:26;;;;;;;5.00;1.55;;;;;;;9.30;100.00;99795.47;4965186;28;20043;-63
2023/11/12 08:10:54;;;;;;;5.18;1.42;;;;;;;9.52;100.00;99785.03;4933773;29;20055;-61
2023/11/12 08:13:21;;;;;;;4.72;1.83;;;;;;;9.50;100.00;99792.03;4934075;29;20059;-61
2023/11/12 08:15:48;;;;;;;5.65;1.70;;;;;;;9.83;100.00;99787.50;4947963;29;20055;-62
2023/11/12 08:18:15;;;;;;;6.93;1.98;;;;;;;9.21;100.00;99800.16;4934282;29;20052;-62
2023/11/12 08:20:43;;;;;;;3.42;1.50;;;;;;;9.51;100.00;99791.69;4931928;29;20051;-61
2023/11/12 08:23:10;;;;;;;5.88;1.83;;;;;;;9.46;100.00;99794.63;4932029;29;20620;-61
2023/11/12 08:25:37;;;;;;;3.15;1.35;;;;;;;9.36;100.00;99792.22;4933426;29;20035;-61
2023/11/12 08:28:04;;;;;;;5.93;1.65;;;;;;;9.40;100.00;99792.34;4933537;29;20090;-62
2023/11/12 08:30:32;;;;;;;7.43;1.75;;;;;;;9.51;100.00;99797.19;4948143;29;20387;-62
2023/11/12 08:32:59;;;;;;;5.22;1.70;;;;;;;9.29;100.00;99785.63;4964811;28;20443;-61
2023/11/12 08:35:29;;;;;;;7.97;2.05;;;;;;;9.13;100.00;99803.75;4931446;29;20058;-60
2023/11/12 08:37:59;;;;;;;6.45;2.08;;;;;;;9.00;100.00;99800.03;4932490;29;20079;-61
2023/11/12 08:40:26;;;;;;;4.68;1.98;;;;;;;9.15;100.00;99802.31;4964218;28;20043;-61
2023/11/12 08:42:54;;;;;;;6.45;2.17;;;;;;;9.11;100.00;99795.84;4963919;28;20048;-62
2023/11/12 08:45:21;;;;;;;4.63;1.75;;;;;;;9.25;100.00;99799.19;4933674;29;20044;-62
2023/11/12 08:47:49;;;;;;;8.65;2.25;;;;;;;9.38;100.00;99811.13;4932050;29;20067;-61
2023/11/12 08:50:16;;;;;;;7.57;1.80;;;;;;;9.45;100.00;99806.72;4931477;29;20420;-62
2023/11/12 08:52:43;;;;;;;6.68;2.08;;;;;;;9.74;100.00;99809.56;4931291;29;20059;-63
2023/11/12 08:55:14;;;;;;;5.53;1.77;;;;;;;10.69;100.00;99801.53;4930741;29;20043;-63
2023/11/12 08:57:41;;;;;;;5.80;1.60;;;;;;;10.41;99.18;99809.53;4962120;28;20144;-61
2023/11/12 09:00:09;;;;;;;6.03;2.08;;;;;;;10.52;98.74;99809.94;4946516;29;20060;-63
2023/11/12 09:02:37;;;;;;;3.88;1.70;;;;;;;11.45;95.63;99801.97;4929749;29;20058;-62
2023/11/12 09:05:05;;;;;;;9.27;1.58;;;;;;;11.53;94.33;99817.59;4932112;29;20059;-59
2023/11/12 09:07:34;;;;;;;7.97;1.55;;;;;;;11.25;92.08;99820.97;4932408;29;20059;-62
2023/11/12 09:10:01;;;;;;;5.80;1.80;;;;;;;11.62;92.80;99821.88;4927701;29;20060;-59
2023/11/12 09:12:29;;;;;;;4.90;1.95;;;;;;;12.15;89.85;99829.22;4931554;29;20045;-62
2023/11/12 09:14:58;;;;;;;6.73;1.97;;;;;;;11.42;88.80;99831.00;4931517;29;20711;-63
2023/11/12 09:17:25;;;;;;;3.30;1.70;;;;;;;11.46;91.79;99826.44;4931767;28;20296;-63
2023/11/12 09:19:53;;;;;;;4.03;1.20;;;;;;;11.80;92.37;99831.59;4932203;29;20058;-63
2023/11/12 09:22:21;;;;;;;3.65;1.20;;;;;;;12.29;89.53;99835.19;4932933;29;20056;-64
2023/11/12 09:24:48;;;;;;;4.32;1.35;;;;;;;12.42;87.57;99836.78;4932626;29;20063;-63
2023/11/12 09:27:35;;;;;;;3.05;1.40;;;;;;;12.49;87.96;99842.53;4931909;29;20046;-62
2023/11/12 09:30:03;;;;;;;5.78;1.67;;;;;;;12.57;87.05;99857.38;4930800;29;20051;-62
2023/11/12 09:32:30;;;;;;;3.00;1.48;;;;;;;12.25;86.18;99868.22;4931203;29;20051;-64
2023/11/12 09:34:58;;;;;;;3.17;1.40;;;;;;;12.59;87.22;99868.91;4930915;29;20055;-63
2023/11/12 09:37:25;;;;;;;4.30;1.30;;;;;;;12.64;85.76;99865.88;4945682;29;20055;-63
2023/11/12 09:39:54;;;;;;;3.10;1.30;;;;;;;12.61;84.46;99866.56;4932090;29;20705;-63
2023/11/12 09:42:28;;;;;;;2.85;1.40;;;;;;;12.66;84.38;99855.31;4928732;29;20052;-62
2023/11/12 09:44:59;;;;;;;4.20;1.75;;;;;;;12.82;84.38;99859.75;4930177;29;20141;-63
2023/11/12 09:47:45;;;;;;;;;;;;;;;12.64;84.43;99865.88;4930044;29;20039;-62
2023/11/12 09:50:12;;;;;;;3.38;1.63;;;;;;;12.11;87.41;99881.56;4960260;28;20369;-63
2023/11/12 09:52:40;;;;;;;2.95;1.38;;;;;;;12.69;86.26;99872.00;4930080;29;20043;-63
2023/11/12 09:55:08;;;;;;;4.00;1.50;;;;;;;12.22;86.95;99879.94;4935207;29;20055;-63
2023/11/12 09:57:36;;;;;;;3.33;1.60;;;;;;;12.16;87.86;99867.53;4929995;29;20053;-63
2023/11/12 10:00:06;;;;;;;3.75;1.50;;;;;;;11.84;90.18;99867.56;4962039;28;20051;-62
2023/11/12 10:02:36;;;;;;;3.85;1.70;;;;;;;12.26;90.03;99871.75;4931422;29;20056;-63
2023/11/12 10:05:10;;;;;;;3.72;1.92;;;;;;;12.84;86.45;99871.25;4961644;28;20055;-64
2023/11/12 10:07:40;;;;;;;3.28;1.80;;;;;;;13.00;85.23;99877.69;4930844;29;20036;-63
2023/11/12 10:10:20;;;;;;;3.53;1.70;;;;;;;13.27;83.43;99878.88;4931685;29;20526;-64
2023/11/12 10:12:48;;;;;;;3.25;1.70;;;;;;;13.19;83.31;99877.88;4931398;29;20063;-63
2023/11/12 10:15:24;;;;;;;4.55;2.35;;;;;;;13.41;82.16;99890.34;4930796;29;20060;-63
2023/11/12 10:17:53;;;;;;;4.00;1.85;;;;;;;13.40;81.85;99888.75;4930813;29;20062;-62
2023/11/12 10:20:30;;;;;;;4.50;1.95;;;;;;;13.17;81.61;99880.19;4960613;28;20055;-63
2023/11/12 10:22:57;;;;;;;4.00;1.92;;;;;;;12.74;83.96;99876.47;4931417;29;20293;-64
2023/11/12 10:25:42;;;;;;;3.97;1.88;;;;;;;12.75;86.27;99875.28;4932990;29;20075;-63
2023/11/12 10:28:10;;;;;;;2.65;1.48;;;;;;;13.15;84.44;99885.25;4930946;29;20071;-63
2023/11/12 10:30:38;;;;;;;3.58;1.90;;;;;;;13.42;82.63;99887.22;4931561;29;20039;-63
2023/11/12 10:33:27;;;;;;;3.40;1.77;;;;;;;13.72;81.47;99876.56;4929870;29;20060;-62
2023/11/12 10:35:55;;;;;;;2.83;1.48;;;;;;;13.66;80.71;99860.59;4929415;29;20048;-69
2023/11/12 10:38:23;;;;;;;3.05;1.63;;;;;;;13.68;80.51;99863.81;4931650;29;20050;-64
2023/11/12 10:41:05;;;;;;;4.22;1.92;;;;;;;13.83;80.96;99863.03;4932024;29;20859;-63
2023/11/12 10:43:35;;;;;;;3.20;1.90;;;;;;;13.87;79.69;99872.22;4946643;28;20419;-62
2023/11/12 10:46:03;;;;;;;4.25;2.30;;;;;;;13.82;80.59;99862.25;4935178;29;20063;-64
2023/11/12 10:48:36;;;;;;;6.85;2.35;;;;;;;13.83;81.05;99871.31;4948269;29;20424;-66
2023/11/12 10:51:06;;;;;;;6.35;2.65;;;;;;;14.01;79.32;99869.84;4964190;28;20052;-63
2023/11/12 10:53:37;;;;;;;10.13;5.07;;;;;;;14.08;79.33;99870.81;4934084;29;20055;-64
2023/11/12 10:56:09;;;;;;;4.18;2.08;;;;;;;14.19;78.99;99882.19;4934602;29;20059;-64
2023/11/12 10:58:36;;;;;;;5.53;2.13;;;;;;;14.17;79.13;99879.78;4934438;29;20058;-63
2023/11/12 11:01:06;;;;;;;6.15;2.42;;;;;;;14.05;79.20;99874.28;4935001;29;20051;-63
2023/11/12 11:03:34;;;;;;;4.70;2.40;;;;;;;14.22;79.26;99884.22;4932878;29;20483;-64
2023/11/12 11:06:03;;;;;;;3.92;2.40;;;;;;;14.18;78.90;99880.53;4932976;29;20059;-64
2023/11/12 11:08:31;;;;;;;4.15;2.30;;;;;;;14.38;78.36;99882.28;4934291;29;20067;-62
2023/11/12 11:11:00;;;;;;;5.05;2.20;;;;;;;14.45;78.30;99883.25;4933507;29;20051;-62
2023/11/12 11:13:27;;;;;;;3.47;2.22;;;;;;;14.47;78.51;99877.38;4934875;29;20048;-63
2023/11/12 11:15:58;;;;;;;7.55;4.75;;;;;;;14.46;78.66;99884.06;4965237;28;20066;-63
2023/11/12 11:18:28;;;;;;;13.05;8.38;;;;;;;14.52;78.46;99890.94;4933227;29;20055;-63
2023/11/12 11:23:45;;;;;;;6.60;3.13;;;;;;;14.52;79.41;99902.03;4934467;29;20066;-63
2023/11/12 11:26:25;;;;;;;5.15;3.10;;;;;;;14.30;80.12;99899.88;4964008;28;20047;-63
2023/11/12 11:29:09;;;;;;;14.27;2.75;;;;;;;14.21;81.59;99900.03;4933440;29;20047;-63
2023/11/12 11:31:38;;;;;;;6.10;2.50;;;;;;;14.31;81.63;99904.28;4934504;29;20559;-63
2023/11/12 11:34:07;;;;;;;4.93;2.22;;;;;;;14.24;82.05;99906.84;4933527;29;20080;-63
2023/11/12 11:36:34;;;;;;;3.28;1.70;;;;;;;14.21;83.02;99913.88;4949861;28;20074;-63
2023/11/12 11:39:02;;;;;;;6.30;2.20;;;;;;;14.22;83.77;99914.69;4917554;29;20059;-63
2023/11/12 11:41:48;;;;;;;4.22;2.05;;;;;;;14.01;83.90;99906.63;4934948;29;20527;-63